createdAt,value
2024-03-07T00:02:25.220Z,5.93
2024-03-07T00:04:51.485Z,5.96
2024-03-07T00:07:17.863Z,5.89
2024-03-07T00:09:44.495Z,5.90
2024-03-07T00:12:10.775Z,5.93
2024-03-07T00:14:36.957Z,5.83
2024-03-07T00:17:03.421Z,5.78
2024-03-07T00:19:29.444Z,5.81
2024-03-07T00:21:56.057Z,5.83
2024-03-07T00:24:22.563Z,5.82
2024-03-07T00:26:49.738Z,5.78
2024-03-07T00:29:15.847Z,5.82
2024-03-07T00:31:41.933Z,5.79
2024-03-07T00:34:13.419Z,5.84
2024-03-07T00:36:43.521Z,5.78
2024-03-07T00:39:09.615Z,5.80
2024-03-07T00:41:35.926Z,5.81
2024-03-07T00:44:02.508Z,5.83
2024-03-07T00:46:28.510Z,5.80
2024-03-07T00:48:54.860Z,5.82
2024-03-07T00:51:20.903Z,5.80
2024-03-07T00:53:46.931Z,5.85
2024-03-07T00:56:13.063Z,5.89
2024-03-07T00:58:39.045Z,5.84
2024-03-07T01:01:05.850Z,5.83
2024-03-07T01:03:31.771Z,5.83
2024-03-07T01:05:57.775Z,5.85
2024-03-07T01:08:23.784Z,5.86
2024-03-07T01:10:49.886Z,5.86
2024-03-07T01:13:15.797Z,5.84
2024-03-07T01:15:42.060Z,5.78
2024-03-07T01:18:08.816Z,5.84
2024-03-07T01:20:34.932Z,5.74
2024-03-07T01:23:00.931Z,5.75
2024-03-07T01:25:27.148Z,5.79
2024-03-07T01:27:53.122Z,5.67
2024-03-07T01:30:19.179Z,5.61
2024-03-07T01:32:45.123Z,5.50
2024-03-07T01:35:12.119Z,5.48
2024-03-07T01:37:38.044Z,5.47
2024-03-07T01:40:04.793Z,5.42
2024-03-07T01:42:30.911Z,5.39
2024-03-07T01:44:57.244Z,5.42
2024-03-07T01:47:23.491Z,5.34
2024-03-07T01:49:49.588Z,5.26
2024-03-07T01:52:17.366Z,5.21
2024-03-07T01:54:43.664Z,5.25
2024-03-07T01:57:09.827Z,5.27
2024-03-07T01:59:35.979Z,5.17
2024-03-07T02:02:02.351Z,5.19
2024-03-07T02:04:28.373Z,5.19
2024-03-07T02:06:54.728Z,5.22
2024-03-07T02:09:21.436Z,5.11
2024-03-07T02:11:48.024Z,5.06
2024-03-07T02:14:14.088Z,5.06
2024-03-07T02:16:40.218Z,5.11
2024-03-07T02:19:07.090Z,5.08
2024-03-07T02:21:33.692Z,5.13
2024-03-07T02:23:59.734Z,5.10
2024-03-07T02:26:25.722Z,5.12
2024-03-07T02:28:51.771Z,5.10
2024-03-07T02:31:17.722Z,5.13
2024-03-07T02:33:43.821Z,5.09
2024-03-07T02:36:09.787Z,5.11
2024-03-07T02:38:36.463Z,5.09
2024-03-07T02:41:02.628Z,5.10
2024-03-07T02:43:28.631Z,5.10
2024-03-07T02:45:54.509Z,5.11
2024-03-07T02:48:20.536Z,5.11
2024-03-07T02:50:46.534Z,5.09
2024-03-07T02:53:12.563Z,5.10
2024-03-07T02:55:39.227Z,5.11
2024-03-07T02:58:05.260Z,5.09
2024-03-07T03:00:31.393Z,5.07
2024-03-07T03:02:57.492Z,5.05
2024-03-07T03:05:23.730Z,5.05
2024-03-07T03:07:50.032Z,5.06
2024-03-07T03:10:16.246Z,5.10
2024-03-07T03:12:42.904Z,5.08
2024-03-07T03:15:09.334Z,5.08
2024-03-07T03:17:35.351Z,5.07
2024-03-07T03:20:01.363Z,5.05
2024-03-07T03:22:27.360Z,5.04
2024-03-07T03:24:53.647Z,4.98
2024-03-07T03:27:19.664Z,4.96
2024-03-07T03:29:46.396Z,4.94
2024-03-07T03:32:12.491Z,4.93
2024-03-07T03:34:38.473Z,4.90
2024-03-07T03:37:04.521Z,4.87
2024-03-07T03:39:30.455Z,4.89
2024-03-07T03:41:56.481Z,4.85
2024-03-07T03:44:22.429Z,4.85
2024-03-07T03:46:49.123Z,4.86
2024-03-07T03:49:15.017Z,4.83
2024-03-07T03:51:40.954Z,4.84
2024-03-07T03:54:06.901Z,4.83
2024-03-07T03:56:32.954Z,4.81
2024-03-07T03:58:58.978Z,4.79
2024-03-07T04:01:25.106Z,4.76
2024-03-07T04:03:51.784Z,4.78
2024-03-07T04:06:19.431Z,4.73
2024-03-07T04:08:45.373Z,4.70
2024-03-07T04:11:11.791Z,4.68
2024-03-07T04:13:37.796Z,4.70
2024-03-07T04:16:04.129Z,4.69
2024-03-07T04:18:30.161Z,4.67
2024-03-07T04:20:56.896Z,4.66
2024-03-07T04:23:22.950Z,4.62
2024-03-07T04:25:48.935Z,4.66
2024-03-07T04:28:14.915Z,4.62
2024-03-07T04:30:41.342Z,4.62
2024-03-07T04:33:07.462Z,4.58
2024-03-07T04:35:33.631Z,4.54
2024-03-07T04:38:00.250Z,4.55
2024-03-07T04:40:26.160Z,4.56
2024-03-07T04:42:52.100Z,4.52
2024-03-07T04:45:18.804Z,4.52
2024-03-07T04:47:45.630Z,4.51
2024-03-07T04:50:12.633Z,4.48
2024-03-07T04:52:38.706Z,4.47
2024-03-07T04:55:06.048Z,4.48
2024-03-07T04:57:32.008Z,4.47
2024-03-07T04:59:58.077Z,4.43
2024-03-07T05:02:24.270Z,4.41
2024-03-07T05:04:50.474Z,4.36
2024-03-07T05:07:16.472Z,4.36
2024-03-07T05:09:42.573Z,4.38
2024-03-07T05:12:09.326Z,4.35
2024-03-07T05:14:35.397Z,4.32
2024-03-07T05:17:01.362Z,4.33
2024-03-07T05:19:27.405Z,4.37
2024-03-07T05:21:53.572Z,4.30
2024-03-07T05:24:19.721Z,4.27
2024-03-07T05:26:45.738Z,4.28
2024-03-07T05:29:12.556Z,4.19
2024-03-07T05:31:39.981Z,4.15
2024-03-07T05:34:05.958Z,4.16
2024-03-07T05:36:31.978Z,4.14
2024-03-07T05:38:58.092Z,4.17
2024-03-07T05:41:24.202Z,4.12
2024-03-07T05:43:50.810Z,4.15
2024-03-07T05:46:17.577Z,4.16
2024-03-07T05:48:43.564Z,4.13
2024-03-07T05:51:09.514Z,4.11
2024-03-07T05:53:35.661Z,4.12
2024-03-07T05:56:01.655Z,4.13
2024-03-07T05:58:27.671Z,4.14
2024-03-07T06:00:53.642Z,4.12
2024-03-07T06:03:20.360Z,4.11
2024-03-07T06:05:46.474Z,4.12
2024-03-07T06:08:12.425Z,4.14
2024-03-07T06:10:38.400Z,4.12
2024-03-07T06:13:10.285Z,4.15
2024-03-07T06:15:38.343Z,4.11
2024-03-07T06:18:05.016Z,4.14
2024-03-07T06:20:31.807Z,4.14
2024-03-07T06:22:57.849Z,4.12
2024-03-07T06:25:23.846Z,4.08
2024-03-07T06:27:49.808Z,4.10
2024-03-07T06:30:16.129Z,4.14
2024-03-07T06:32:42.218Z,4.14
2024-03-07T06:35:08.820Z,4.15
2024-03-07T06:37:35.423Z,4.14
2024-03-07T06:40:01.528Z,4.17
2024-03-07T06:42:27.529Z,4.17
2024-03-07T06:44:53.603Z,4.17
2024-03-07T06:47:19.621Z,4.20
2024-03-07T06:49:45.860Z,4.21
2024-03-07T06:52:11.833Z,4.22
2024-03-07T06:54:38.485Z,4.27
2024-03-07T06:57:05.040Z,4.25
2024-03-07T06:59:31.043Z,4.28
2024-03-07T07:01:58.323Z,4.27
2024-03-07T07:04:24.330Z,4.28
2024-03-07T07:06:50.253Z,4.32
2024-03-07T07:09:19.656Z,4.34
2024-03-07T07:11:47.246Z,4.41
2024-03-07T07:14:13.460Z,4.49
2024-03-07T07:16:39.426Z,4.51
2024-03-07T07:19:05.478Z,4.60
2024-03-07T07:21:31.443Z,4.64
2024-03-07T07:23:57.592Z,4.73
2024-03-07T07:26:23.549Z,4.74
2024-03-07T07:28:50.184Z,4.87
2024-03-07T07:31:16.101Z,4.94
2024-03-07T07:33:42.155Z,4.96
2024-03-07T07:36:08.321Z,5.02
2024-03-07T07:38:34.488Z,5.11
2024-03-07T07:41:00.482Z,5.13
2024-03-07T07:43:33.946Z,5.18
2024-03-07T07:46:08.814Z,5.26
2024-03-07T07:48:34.921Z,5.35
2024-03-07T07:51:01.160Z,5.44
2024-03-07T07:53:27.270Z,5.58
2024-03-07T07:55:53.278Z,6.28
2024-03-07T07:58:19.282Z,7.42
2024-03-07T08:00:45.882Z,8.88
2024-03-07T08:03:12.839Z,9.58
2024-03-07T08:05:39.116Z,10.25
2024-03-07T08:08:07.056Z,10.07
2024-03-07T08:10:35.429Z,11.22
2024-03-07T08:13:02.888Z,11.59
2024-03-07T08:15:30.555Z,11.83
2024-03-07T08:17:58.275Z,11.70
2024-03-07T08:20:27.146Z,12.00
2024-03-07T08:22:54.863Z,11.76
2024-03-07T08:25:23.421Z,11.77
2024-03-07T08:27:50.833Z,12.54
2024-03-07T08:30:17.763Z,12.83
2024-03-07T08:32:45.810Z,13.14
2024-03-07T08:35:12.424Z,12.68
2024-03-07T08:37:40.513Z,11.65
2024-03-07T08:40:11.303Z,10.75
2024-03-07T08:42:37.861Z,9.85
2024-03-07T08:45:12.213Z,9.41
2024-03-07T08:47:52.288Z,9.46
2024-03-07T08:50:31.197Z,9.56
2024-03-07T08:53:04.725Z,9.32
2024-03-07T08:55:31.268Z,9.12
2024-03-07T08:57:57.318Z,9.02
2024-03-07T09:00:23.952Z,8.82
2024-03-07T09:02:50.868Z,8.84
2024-03-07T09:05:17.052Z,8.80
2024-03-07T09:07:43.196Z,8.93
2024-03-07T09:10:10.053Z,9.08
2024-03-07T09:12:36.125Z,9.14
2024-03-07T09:15:02.366Z,9.19
2024-03-07T09:17:28.487Z,9.57
2024-03-07T09:19:54.473Z,10.43
2024-03-07T09:22:20.444Z,10.82
2024-03-07T09:24:46.463Z,12.16
2024-03-07T09:27:13.124Z,12.01
2024-03-07T09:29:39.066Z,13.11
2024-03-07T09:32:05.679Z,14.47
2024-03-07T09:34:31.669Z,14.19
2024-03-07T09:36:57.682Z,14.30
2024-03-07T09:39:23.586Z,15.36
2024-03-07T09:41:50.121Z,16.68
2024-03-07T09:44:19.627Z,17.65
2024-03-07T09:46:47.650Z,18.44
2024-03-07T09:49:14.218Z,19.28
2024-03-07T09:51:40.230Z,19.31
2024-03-07T09:54:06.304Z,19.90
2024-03-07T09:56:32.390Z,20.55
2024-03-07T09:58:58.944Z,20.92
2024-03-07T10:01:27.267Z,21.38
2024-03-07T10:03:58.580Z,21.78
2024-03-07T10:06:25.110Z,20.89
2024-03-07T10:08:51.890Z,20.42
2024-03-07T10:11:17.957Z,21.19
2024-03-07T10:13:43.933Z,21.47
2024-03-07T10:16:09.865Z,21.57
2024-03-07T10:18:42.858Z,22.04
2024-03-07T10:21:09.095Z,20.69
2024-03-07T10:23:35.046Z,19.79
2024-03-07T10:26:01.146Z,19.26
2024-03-07T10:28:27.523Z,17.89
2024-03-07T10:30:53.476Z,18.56
2024-03-07T10:33:20.195Z,19.81
2024-03-07T10:35:48.046Z,20.95
2024-03-07T10:38:15.825Z,21.23
2024-03-07T10:40:43.042Z,21.63
2024-03-07T10:43:10.736Z,22.51
2024-03-07T10:45:44.500Z,21.56
2024-03-07T10:48:12.719Z,21.29
2024-03-07T10:50:54.252Z,19.59
2024-03-07T10:53:29.684Z,18.41
2024-03-07T10:56:17.660Z,16.99
2024-03-07T10:58:55.875Z,15.64
2024-03-07T11:01:23.897Z,14.75
2024-03-07T11:03:50.529Z,15.16
2024-03-07T11:06:18.020Z,14.69
2024-03-07T11:08:44.858Z,14.20
2024-03-07T11:11:11.464Z,13.63
2024-03-07T11:13:38.323Z,13.42
2024-03-07T11:16:06.817Z,13.07
2024-03-07T11:18:32.837Z,12.81
2024-03-07T11:20:59.100Z,12.80
2024-03-07T11:23:26.410Z,12.83
2024-03-07T11:25:54.118Z,12.91
2024-03-07T11:28:29.377Z,13.09
2024-03-07T11:30:55.400Z,12.87
2024-03-07T11:33:21.430Z,12.69
2024-03-07T11:35:49.396Z,12.73
2024-03-07T11:38:15.372Z,12.77
2024-03-07T11:40:44.777Z,13.87
2024-03-07T11:43:12.452Z,14.87
2024-03-07T11:45:38.405Z,14.78
2024-03-07T11:48:05.808Z,14.07
2024-03-07T11:50:31.915Z,15.58
2024-03-07T11:52:57.826Z,17.24
2024-03-07T11:55:24.014Z,17.77
2024-03-07T11:57:51.322Z,19.29
2024-03-07T12:00:18.844Z,20.28
2024-03-07T12:02:45.037Z,21.15
2024-03-07T12:05:11.293Z,21.59
2024-03-07T12:07:37.228Z,20.07
2024-03-07T12:10:03.819Z,19.60
2024-03-07T12:12:30.423Z,19.16
2024-03-07T12:14:57.265Z,18.42
2024-03-07T12:17:24.113Z,17.93
2024-03-07T12:19:50.828Z,17.93
2024-03-07T12:22:19.906Z,18.29
2024-03-07T12:24:45.916Z,18.25
2024-03-07T12:27:13.016Z,18.72
2024-03-07T12:29:40.428Z,19.60
2024-03-07T12:32:07.392Z,19.64
2024-03-07T12:34:33.864Z,18.57
2024-03-07T12:36:59.819Z,18.25
2024-03-07T12:39:26.044Z,18.40
2024-03-07T12:41:52.408Z,18.84
2024-03-07T12:44:18.550Z,18.94
2024-03-07T12:46:47.013Z,18.57
2024-03-07T12:49:13.866Z,17.92
2024-03-07T12:51:39.820Z,17.58
2024-03-07T12:54:05.894Z,16.69
2024-03-07T12:56:31.935Z,16.01
2024-03-07T12:58:57.922Z,15.40
2024-03-07T13:01:23.953Z,14.95
2024-03-07T13:03:50.066Z,14.38
2024-03-07T13:06:16.697Z,13.93
2024-03-07T13:08:42.815Z,13.70
2024-03-07T13:11:08.990Z,13.54
2024-03-07T13:13:34.994Z,13.44
2024-03-07T13:16:01.106Z,13.47
2024-03-07T13:18:27.339Z,13.49
2024-03-07T13:20:53.561Z,13.29
2024-03-07T13:23:20.454Z,13.25
2024-03-07T13:25:46.914Z,13.10
2024-03-07T13:28:15.224Z,13.02
2024-03-07T13:30:41.835Z,12.99
2024-03-07T13:33:07.951Z,13.13
2024-03-07T13:35:34.038Z,13.31
2024-03-07T13:38:00.751Z,13.77
2024-03-07T13:40:27.426Z,14.73
2024-03-07T13:42:54.862Z,15.49
2024-03-07T13:45:22.841Z,17.24
2024-03-07T13:47:49.784Z,18.30
2024-03-07T13:50:19.730Z,18.66
2024-03-07T13:52:50.720Z,18.82
2024-03-07T13:55:16.613Z,17.64
2024-03-07T13:57:48.319Z,16.65
2024-03-07T14:00:32.778Z,15.70
2024-03-07T14:03:31.181Z,14.84
2024-03-07T14:06:00.907Z,13.80
2024-03-07T14:09:06.815Z,13.59
2024-03-07T14:12:03.812Z,12.88
2024-03-07T14:15:14.203Z,12.72
2024-03-07T14:18:04.746Z,12.43
2024-03-07T14:20:53.957Z,12.08
2024-03-07T14:23:38.629Z,11.86
2024-03-07T14:26:37.974Z,11.79
2024-03-07T14:29:17.774Z,12.04
2024-03-07T14:31:43.727Z,12.53
2024-03-07T14:34:14.489Z,13.15
2024-03-07T14:36:44.323Z,13.30
2024-03-07T14:39:10.516Z,13.18
2024-03-07T14:41:50.545Z,13.25
2024-03-07T14:44:17.514Z,13.41
2024-03-07T14:46:44.212Z,13.31
2024-03-07T14:49:15.860Z,13.55
2024-03-07T14:51:48.932Z,13.97
2024-03-07T14:54:21.376Z,14.12
2024-03-07T14:56:47.449Z,13.90
2024-03-07T14:59:13.557Z,13.82
2024-03-07T15:01:39.860Z,13.54
2024-03-07T15:04:05.975Z,13.36
2024-03-07T15:06:32.751Z,13.16
2024-03-07T15:08:58.807Z,13.14
2024-03-07T15:11:31.702Z,12.85
2024-03-07T15:13:58.751Z,12.64
2024-03-07T15:16:32.475Z,12.46
2024-03-07T15:19:00.112Z,12.37
2024-03-07T15:21:26.269Z,12.48
2024-03-07T15:23:53.083Z,12.63
2024-03-07T15:26:19.567Z,12.75
2024-03-07T15:28:45.622Z,12.66
2024-03-07T15:31:11.552Z,12.43
2024-03-07T15:33:37.631Z,12.21
2024-03-07T15:36:03.919Z,12.06
2024-03-07T15:38:29.960Z,12.04
2024-03-07T15:41:03.034Z,12.04
2024-03-07T15:43:29.019Z,11.88
2024-03-07T15:45:55.088Z,11.80
2024-03-07T15:48:24.081Z,11.77
2024-03-07T15:50:51.093Z,11.76
2024-03-07T15:53:17.141Z,11.71
2024-03-07T15:55:43.140Z,11.58
2024-03-07T15:58:09.767Z,11.50
2024-03-07T16:00:36.485Z,11.47
2024-03-07T16:03:04.212Z,11.45
2024-03-07T16:05:31.521Z,11.44
2024-03-07T16:07:59.379Z,11.25
2024-03-07T16:10:28.245Z,11.24
2024-03-07T16:12:54.460Z,11.15
2024-03-07T16:15:25.331Z,11.15
2024-03-07T16:17:55.158Z,11.15
2024-03-07T16:20:21.187Z,11.18
2024-03-07T16:22:47.746Z,11.16
2024-03-07T16:25:13.729Z,11.11
2024-03-07T16:27:39.723Z,11.11
2024-03-07T16:30:06.618Z,11.13
2024-03-07T16:32:34.082Z,11.04
2024-03-07T16:35:01.344Z,11.03
2024-03-07T16:37:27.689Z,11.02
2024-03-07T16:39:53.680Z,10.97
2024-03-07T16:42:19.780Z,10.85
2024-03-07T16:44:45.900Z,10.83
2024-03-07T16:47:12.200Z,10.82
2024-03-07T16:49:39.457Z,10.83
2024-03-07T16:52:05.814Z,10.71
2024-03-07T16:54:31.707Z,10.70
2024-03-07T16:56:57.675Z,10.72
2024-03-07T16:59:23.678Z,10.62
2024-03-07T17:01:49.695Z,10.57
2024-03-07T17:04:15.637Z,10.56
2024-03-07T17:06:42.395Z,10.48
2024-03-07T17:09:08.404Z,10.43
2024-03-07T17:11:34.488Z,10.42
2024-03-07T17:14:00.460Z,10.38
2024-03-07T17:16:26.466Z,10.35
2024-03-07T17:18:52.538Z,10.26
2024-03-07T17:21:18.715Z,10.22
2024-03-07T17:23:45.312Z,10.10
2024-03-07T17:26:11.325Z,10.12
2024-03-07T17:28:37.362Z,10.03
2024-03-07T17:31:03.952Z,10.02
2024-03-07T17:33:30.124Z,9.94
2024-03-07T17:35:56.319Z,9.91
2024-03-07T17:38:22.293Z,9.80
2024-03-07T17:40:49.320Z,9.74
2024-03-07T17:43:15.436Z,9.72
2024-03-07T17:45:41.447Z,9.65
2024-03-07T17:48:08.943Z,9.66
2024-03-07T17:50:36.148Z,9.60
2024-03-07T17:53:04.840Z,9.59
2024-03-07T17:55:34.193Z,9.57
2024-03-07T17:58:02.208Z,9.53
2024-03-07T18:00:28.434Z,9.49
2024-03-07T18:02:54.630Z,9.45
2024-03-07T18:05:20.853Z,9.43
2024-03-07T18:07:47.657Z,9.43
2024-03-07T18:10:13.629Z,9.46
2024-03-07T18:12:39.611Z,9.41
2024-03-07T18:15:16.048Z,9.39
2024-03-07T18:17:47.298Z,9.36
2024-03-07T18:20:13.668Z,9.33
2024-03-07T18:22:39.696Z,9.32
2024-03-07T18:25:06.771Z,9.25
2024-03-07T18:27:32.786Z,9.19
2024-03-07T18:29:58.853Z,9.17
2024-03-07T18:32:25.641Z,9.13
2024-03-07T18:34:51.582Z,9.12
2024-03-07T18:37:17.863Z,9.05
2024-03-07T18:39:43.969Z,9.02
2024-03-07T18:42:10.132Z,8.95
2024-03-07T18:44:36.165Z,8.92
2024-03-07T18:47:02.258Z,8.82
2024-03-07T18:49:29.108Z,8.76
2024-03-07T18:51:55.091Z,8.72
2024-03-07T18:54:21.035Z,8.67
2024-03-07T18:56:47.097Z,8.56
2024-03-07T18:59:13.151Z,8.43
2024-03-07T19:01:39.251Z,8.34
2024-03-07T19:04:05.182Z,8.29
2024-03-07T19:06:36.810Z,8.15
2024-03-07T19:09:03.067Z,8.07
2024-03-07T19:11:29.032Z,8.02
2024-03-07T19:13:55.437Z,7.95
2024-03-07T19:16:21.390Z,7.88
2024-03-07T19:18:47.585Z,7.88
2024-03-07T19:21:13.795Z,7.81
2024-03-07T19:23:40.616Z,7.78
2024-03-07T19:26:06.519Z,7.67
2024-03-07T19:28:32.578Z,7.64
2024-03-07T19:30:58.525Z,7.54
2024-03-07T19:33:24.859Z,7.53
2024-03-07T19:35:52.346Z,7.51
2024-03-07T19:38:18.809Z,7.46
2024-03-07T19:40:45.647Z,7.37
2024-03-07T19:43:11.801Z,7.33
2024-03-07T19:45:41.465Z,7.26
2024-03-07T19:48:08.244Z,7.27
2024-03-07T19:50:34.302Z,7.25
2024-03-07T19:53:00.219Z,7.21
2024-03-07T19:55:26.560Z,7.16
2024-03-07T19:57:53.161Z,7.17
2024-03-07T20:00:19.431Z,7.14
2024-03-07T20:02:46.363Z,7.09
2024-03-07T20:05:13.362Z,7.09
2024-03-07T20:07:39.614Z,7.10
2024-03-07T20:10:06.870Z,7.06
2024-03-07T20:12:34.612Z,7.04
2024-03-07T20:15:01.828Z,7.00
2024-03-07T20:17:27.981Z,7.00
2024-03-07T20:19:54.360Z,6.97
2024-03-07T20:22:20.329Z,6.98
2024-03-07T20:24:47.832Z,7.00
2024-03-07T20:27:13.782Z,6.99
2024-03-07T20:29:39.749Z,6.97
2024-03-07T20:32:06.894Z,6.94
2024-03-07T20:34:33.046Z,6.89
2024-03-07T20:36:59.006Z,6.85
2024-03-07T20:39:25.181Z,6.80
2024-03-07T20:41:51.981Z,6.74
2024-03-07T20:44:18.011Z,6.75
2024-03-07T20:46:43.961Z,6.68
2024-03-07T20:49:10.563Z,6.65
2024-03-07T20:51:36.636Z,6.63
2024-03-07T20:54:02.843Z,6.58
2024-03-07T20:56:28.975Z,6.58
2024-03-07T20:58:54.912Z,6.54
2024-03-07T21:01:20.941Z,6.46
2024-03-07T21:03:47.130Z,6.45
2024-03-07T21:06:13.756Z,6.41
2024-03-07T21:08:40.051Z,6.38
2024-03-07T21:11:06.125Z,6.41
2024-03-07T21:13:32.431Z,6.40
2024-03-07T21:15:58.515Z,6.35
2024-03-07T21:18:24.754Z,6.33
2024-03-07T21:20:51.012Z,6.28
2024-03-07T21:23:17.650Z,6.26
2024-03-07T21:25:43.697Z,6.25
2024-03-07T21:28:09.809Z,6.21
2024-03-07T21:30:35.957Z,6.16
2024-03-07T21:33:02.704Z,6.16
2024-03-07T21:35:28.716Z,6.17
2024-03-07T21:37:54.755Z,6.14
2024-03-07T21:40:21.558Z,6.09
2024-03-07T21:42:47.878Z,6.09
2024-03-07T21:45:13.876Z,6.04
2024-03-07T21:47:41.375Z,6.04
2024-03-07T21:50:09.591Z,6.01
2024-03-07T21:52:35.547Z,5.97
2024-03-07T21:55:01.505Z,5.91
2024-03-07T21:57:28.327Z,5.90
2024-03-07T21:59:54.329Z,5.87
2024-03-07T22:02:21.182Z,5.87
2024-03-07T22:07:16.159Z,5.84
2024-03-07T22:09:42.364Z,5.79
2024-03-07T22:12:08.436Z,5.77
2024-03-07T22:14:35.284Z,5.74
2024-03-07T22:17:01.520Z,5.72
2024-03-07T22:19:27.727Z,5.70
2024-03-07T22:21:53.847Z,5.69
2024-03-07T22:24:19.849Z,5.64
2024-03-07T22:26:45.812Z,5.63
2024-03-07T22:29:11.845Z,5.57
2024-03-07T22:31:39.192Z,5.55
2024-03-07T22:34:05.310Z,5.51
2024-03-07T22:36:31.292Z,5.49
2024-03-07T22:38:57.965Z,5.47
2024-03-07T22:41:23.994Z,5.46
2024-03-07T22:43:50.181Z,5.42
2024-03-07T22:46:16.218Z,5.38
2024-03-07T22:48:42.996Z,5.36
2024-03-07T22:51:09.279Z,5.33
2024-03-07T22:53:35.395Z,5.31
2024-03-07T22:56:01.359Z,5.21
2024-03-07T22:58:27.342Z,5.25
2024-03-07T23:00:53.336Z,5.24
2024-03-07T23:03:19.657Z,5.17
2024-03-07T23:05:46.264Z,5.16
2024-03-07T23:08:12.384Z,5.19
2024-03-07T23:10:38.374Z,5.13
2024-03-07T23:13:04.476Z,5.09
2024-03-07T23:15:30.837Z,5.10
2024-03-07T23:17:58.599Z,5.09
2024-03-07T23:20:27.329Z,5.06
2024-03-07T23:22:55.953Z,5.05
2024-03-07T23:25:22.232Z,4.97
2024-03-07T23:27:48.312Z,4.98
2024-03-07T23:30:14.840Z,4.95
2024-03-07T23:32:40.915Z,4.93
2024-03-07T23:35:07.591Z,4.90
2024-03-07T23:37:33.806Z,4.91
2024-03-07T23:40:00.519Z,4.89
2024-03-07T23:42:26.549Z,4.87
2024-03-07T23:44:52.612Z,4.82
2024-03-07T23:47:18.630Z,4.80
2024-03-07T23:49:44.659Z,4.72
2024-03-07T23:52:10.701Z,4.68
2024-03-07T23:54:36.626Z,4.56
2024-03-07T23:57:04.740Z,4.53
2024-03-07T23:59:30.791Z,4.47
